Decoded Metar for LFBD (BORDEAUX in FRANCE) (IATA:BOD) | Meteo·Mobile Aviation Weather
aviador You're here:

LFBD Decoded Metar

BORDEAUX in FRANCE
Report Time2019-11-16 00:30:00
UTC Time2019-11-16 00:55:57
Flight Rules vfr VFR
Wind220° at 07 kt
W.Decomp.*RWY 23: 6.9 kt HW 1.1 kt LCW
RWY 29: 2.5 kt HW 6.5 kt LCW
Visibility9999 m
Phenomena:Shower Rain
Clouds:Broken 039 Hf
Overcast 047 Hf
Expected CloudBase > 400 ft AGL from Temp-Dew spread
Ceiling3,900 ft
Temp05°C (ISA -10)
Dew Point04°C (93% RH)
AAT1.2°C
QNH1006 hPa
Density Alt-610 ft
Elevation200 ft
Report Wrong Elevation
Raw Report
LFBD 160030Z AUTO 22007KT 9999 BKN039 OVC047 05/04 Q1006 TEMPO
4000 SHRA BKN030TCU=

Extra information for LFBD:More info

Metar Taf Metar & Taf Last 4 Metars F.Rules Stats Wind Profile Meteogram Temp Stats Airport Information Weather charts Add Link Nearby VenuesMetar ALERT Operation Metar Decoded Social comments